Latest Weather Observations for PORTABLE QFRK (Ravenshoe)

IDQ60801

Issued at 4:42 am EST Thursday 20 September 2018 (issued every 10 minutes, with the page automatically refreshed every 10 minutes)

About weather observations | Map of weather stations | Latest weather observations for QLD | Other Formats
Station Details ID: 250075 Name: PORTABLE QFRK (RAVENSHOE) Lat: -17.61 Lon: 145.49 Height: 922.0 m
Data from the previous 72 hours. | See also: Recent months for locations in Queensland
Date/Time
EST
Temp
°C
App
Temp
°C
Dew
Point
°C
Rel
Hum
%
Delta-T
°C
Wind Press
QNH
hPa
Press
MSL
hPa
Rain since
9am
mm
Dir  Spd
km/h
Gust
km/h
Spd
kts
Gust
kts
20/04:20am 12.7 11.8 11.4 92 0.7 E 7 9 4 5 - - 0.0
20/04:10am 12.5 11.4 10.7 89 1.0 E 7 7 4 4 - - 0.0
20/04:00am 12.0 11.1 9.3 83 1.4 E 4 7 2 4 - - 0.0
20/03:50am 12.1 11.1 7.3 72 2.4 E 2 4 1 2 - - 0.0
20/03:40am 12.2 11.1 7.1 71 2.6 ESE 2 4 1 2 - - 0.0
20/03:30am 12.4 11.3 6.9 69 2.8 ESE 2 4 1 2 - - 0.0
20/03:20am 12.7 11.6 6.9 68 2.9 SE 2 7 1 4 - - 0.0
20/03:10am 12.6 11.1 7.0 68 2.8 E 4 6 2 3 - - 0.0
20/03:00am 12.8 11.7 7.1 68 2.9 ESE 2 6 1 3 - - 0.0
20/02:50am 13.3 11.5 7.2 66 3.1 E 6 7 3 4 - - 0.0
20/02:40am 13.2 11.2 7.1 66 3.1 E 7 9 4 5 - - 0.0
20/02:30am 13.0 11.2 7.2 68 3.0 E 6 7 3 4 - - 0.0
20/02:20am 13.1 11.3 7.1 67 3.1 E 6 7 3 4 - - 0.0
20/02:10am 13.4 11.4 7.3 66 3.1 E 7 7 4 4 - - 0.0
20/02:00am 13.2 11.5 7.4 68 3.0 E 6 7 3 4 - - 0.0
20/01:50am 13.3 11.7 7.8 69 2.8 E 6 7 3 4 - - 0.0
20/01:40am 13.5 11.9 8.0 69 2.9 E 6 7 3 4 - - 0.0
20/01:30am 13.9 12.1 8.0 67 3.1 ESE 7 9 4 5 - - 0.0
20/01:20am 13.8 12.2 8.6 71 2.7 E 7 9 4 5 - - 0.0
20/01:10am 13.7 12.1 8.8 72 2.6 ENE 7 9 4 5 - - 0.0
20/01:00am 14.1 12.0 8.3 68 3.1 E 9 9 5 5 - - 0.0
20/12:50am 13.9 11.7 8.0 67 3.1 ENE 9 9 5 5 - - 0.0
20/12:40am 13.8 11.7 8.1 68 3.0 ENE 9 9 5 5 - - 0.0
20/12:30am 13.6 11.8 7.8 68 3.0 E 7 9 4 5 - - 0.0
20/12:20am 13.4 11.9 8.5 72 2.6 E 6 7 3 4 - - 0.0
20/12:10am 13.7 12.2 9.3 75 2.4 E 7 7 4 4 - - 0.0
20/12:00am 14.0 12.2 9.6 75 2.4 E 9 11 5 6 - - 0.0
 
Date/Time
EST
Temp
°C
App
Temp
°C
Dew
Point
°C
Rel
Hum
%
Delta-T
°C
Wind Press
QNH
hPa
Press
MSL
hPa
Rain since
9am
mm
Dir  Spd
km/h
Gust
km/h
Spd
kts
Gust
kts
19/11:50pm 14.0 12.3 9.7 75 2.3 ENE 9 11 5 6 - - 0.0
19/11:40pm 14.2 13.0 10.2 77 2.2 E 7 9 4 5 - - 0.0
19/11:30pm 14.3 12.8 10.7 79 2.0 E 9 11 5 6 - - 0.0
19/11:20pm 14.3 12.9 10.9 80 1.9 E 9 11 5 6 - - 0.0
19/11:10pm 14.5 13.7 11.6 83 1.6 E 7 9 4 5 - - 0.0
19/11:00pm 14.4 13.8 11.7 84 1.5 E 6 9 3 5 - - 0.0
19/10:50pm 14.4 13.8 12.3 87 1.2 E 7 9 4 5 - - 0.0
19/10:40pm 14.3 14.5 13.2 93 0.6 ESE 4 6 2 3 - - 0.0
19/10:30pm 14.4 14.7 13.4 94 0.6 ESE 4 6 2 3 - - 0.0
19/10:20pm 14.5 14.5 13.5 94 0.6 ESE 6 6 3 3 - - 0.0
19/10:10pm 14.7 15.1 13.8 94 0.5 ESE 4 6 2 3 - - 0.0
19/10:00pm 14.7 15.1 13.8 94 0.5 ESE 4 9 2 5 - - 0.0
19/09:50pm 14.9 14.8 13.9 94 0.6 E 7 9 4 5 - - 0.0
19/09:40pm 14.9 15.0 13.9 94 0.6 E 6 7 3 4 - - 0.0
19/09:30pm 15.0 14.6 14.0 94 0.6 E 9 13 5 7 - - 0.0
19/09:20pm 15.0 14.5 13.9 93 0.6 E 9 11 5 6 - - 0.0
19/09:10pm 15.1 14.6 13.8 92 0.8 E 9 11 5 6 - - 0.0
19/09:00pm 15.2 14.8 14.0 92 0.7 E 9 13 5 7 - - 0.0
19/08:50pm 15.2 14.8 14.2 94 0.6 E 9 11 5 6 - - 0.0
19/08:40pm 15.2 15.2 14.2 94 0.6 E 7 9 4 5 - - 0.0
19/08:30pm 15.2 15.2 14.3 94 0.5 E 7 9 4 5 - - 0.0
19/08:20pm 15.2 15.2 14.2 94 0.6 E 7 9 4 5 - - 0.0
19/08:10pm 15.3 15.3 14.3 94 0.6 E 7 9 4 5 - - 0.0
19/08:00pm 15.4 15.5 14.4 94 0.6 E 7 7 4 4 - - 0.0
19/07:50pm 15.5 15.8 14.4 93 0.7 ESE 6 11 3 6 - - 0.0
19/07:40pm 15.7 15.4 14.4 92 0.8 E 9 13 5 7 - - 0.0
19/07:30pm 15.8 15.1 14.4 91 0.8 E 11 13 6 7 - - 0.0
19/07:20pm 16.0 15.3 14.3 90 1.0 E 11 13 6 7 - - 0.0
19/07:10pm 16.0 14.9 14.3 90 1.0 E 13 15 7 8 - - 0.0
19/07:00pm 16.1 15.8 14.4 90 1.0 E 9 15 5 8 - - 0.0
19/06:50pm 16.2 15.6 14.6 90 1.0 ENE 11 13 6 7 - - 0.0
19/06:40pm 16.3 15.7 14.5 89 1.1 ENE 11 13 6 7 - - 0.0
19/06:30pm 16.5 15.8 14.4 87 1.3 ENE 11 13 6 7 - - 0.0
19/06:20pm 16.8 16.5 14.5 86 1.4 E 9 13 5 7 - - 0.0
19/06:10pm 17.2 17.0 14.6 85 1.6 E 9 13 5 7 - - 0.0
19/06:00pm 17.7 16.7 14.5 81 1.9 E 13 15 7 8 - - 0.0
19/05:50pm 18.0 17.5 14.8 81 1.9 E 11 13 6 7 - - 0.0
19/05:40pm 18.3 17.3 14.7 79 2.2 E 13 17 7 9 - - 0.0
19/05:30pm 18.5 17.1 14.5 77 2.4 E 15 19 8 10 - - 0.0
19/05:20pm 18.8 17.4 14.4 75 2.7 ENE 15 17 8 9 - - 0.0
19/05:10pm 19.8 19.1 14.4 71 3.3 E 11 20 6 11 - - 0.0
19/05:00pm 19.1 17.6 14.2 73 2.9 E 15 19 8 10 - - 0.0
19/04:50pm 19.6 18.5 14.4 72 3.1 E 13 15 7 8 - - 0.0
19/04:40pm 19.8 18.6 14.0 69 3.5 ENE 13 17 7 9 - - 0.0
19/04:30pm 19.2 17.7 14.2 73 3.0 ENE 15 19 8 10 - - 0.0
19/04:20pm 19.8 18.4 14.4 71 3.3 ENE 15 20 8 11 - - 0.0
19/04:10pm 20.8 19.4 14.5 67 3.8 ENE 15 17 8 9 - - 0.0
19/04:00pm 20.4 19.0 14.4 68 3.6 ENE 15 19 8 10 - - 0.0
19/03:50pm 21.4 20.7 14.3 64 4.3 ESE 11 17 6 9 - - 0.0
19/03:40pm 21.3 20.7 13.6 61 4.6 SE 9 13 5 7 - - 0.0
19/03:30pm 21.8 20.2 12.9 57 5.3 ESE 13 17 7 9 - - 0.0
19/03:20pm 21.3 20.3 13.3 60 4.8 E 11 17 6 9 - - 0.0
19/03:10pm 21.5 19.6 13.1 58 5.0 E 15 19 8 10 - - 0.0
19/03:00pm 21.4 19.6 13.3 60 4.8 E 15 19 8 10 - - 0.0
19/02:50pm 20.9 18.9 13.8 64 4.3 E 17 20 9 11 - - 0.0
19/02:40pm 21.0 19.3 14.8 67 3.8 ENE 17 20 9 11 - - 0.0
19/02:30pm 21.2 19.8 14.5 65 4.1 ENE 15 19 8 10 - - 0.0
19/02:20pm 20.3 18.6 14.6 70 3.5 E 17 22 9 12 - - 0.0
19/02:10pm 19.7 18.0 14.8 73 3.0 E 17 22 9 12 - - 0.0
19/02:00pm 20.7 18.6 14.7 68 3.7 E 19 26 10 14 - - 0.0
19/01:50pm 20.7 18.8 15.8 73 3.0 E 20 22 11 12 - - 0.0
19/01:40pm 22.3 19.9 15.4 65 4.3 E 22 28 12 15 - - 0.0
19/01:30pm 23.3 21.8 14.3 57 5.5 E 15 22 8 12 - - 0.0
19/01:20pm 22.9 21.0 14.1 57 5.4 E 17 24 9 13 - - 0.0
19/01:10pm 23.3 21.7 13.8 55 5.8 ESE 15 19 8 10 - - 0.0
19/01:00pm 24.2 23.2 13.3 50 6.6 ESE 11 15 6 8 - - 0.0
19/12:50pm 23.5 21.9 12.9 51 6.4 ESE 13 24 7 13 - - 0.0
19/12:40pm 23.2 20.9 12.9 52 6.2 E 17 20 9 11 - - 0.0
19/12:30pm 23.6 21.9 13.5 53 6.1 ESE 15 22 8 12 - - 0.0
19/12:20pm 23.7 22.5 12.7 50 6.6 ESE 11 17 6 9 - - 0.0
19/12:10pm 23.5 21.3 12.1 48 6.7 E 15 20 8 11 - - 0.0
19/12:00pm 23.0 20.1 12.3 51 6.3 E 19 24 10 13 - - 0.0
19/11:50am 22.9 19.6 11.5 48 6.7 E 20 28 11 15 - - 0.0
19/11:40am 22.8 20.0 12.6 52 6.1 E 19 24 10 13 - - 0.0
19/11:30am 22.0 19.1 12.9 56 5.4 E 20 22 11 12 - - 0.0
19/11:20am 21.6 19.6 13.9 61 4.7 E 17 20 9 11 - - 0.0
19/11:10am 21.3 18.7 13.8 62 4.5 E 20 26 11 14 - - 0.0
19/11:00am 21.5 18.5 13.7 61 4.7 E 22 28 12 15 - - 0.0
19/10:50am 21.7 19.2 13.5 59 4.9 E 19 26 10 14 - - 0.0
19/10:40am 21.5 18.8 13.6 60 4.8 E 20 26 11 14 - - 0.0
19/10:30am 21.2 18.8 14.5 65 4.1 E 20 24 11 13 - - 0.0
19/10:20am 21.6 19.3 14.1 62 4.6 E 19 20 10 11 - - 0.0
19/10:10am 20.9 18.6 14.1 65 4.1 E 19 24 10 13 - - 0.0
19/10:00am 20.7 18.3 13.9 65 4.1 E 19 28 10 15 - - 0.0
19/09:50am 20.9 19.1 14.4 66 4.0 E 17 22 9 12 - - 0.0
19/09:40am 20.4 18.5 14.2 67 3.8 E 17 22 9 12 - - 0.0
19/09:30am 20.0 17.4 13.9 68 3.7 E 20 24 11 13 - - 0.0
19/09:20am 19.5 17.3 14.3 72 3.1 E 19 22 10 12 - - 0.0
19/09:10am 19.6 17.6 13.9 69 3.4 E 17 22 9 12 - - 0.0
19/09:00am 19.0 16.6 13.9 72 3.1 E 19 26 10 14 - - 0.2
19/08:50am 18.6 16.0 13.8 73 2.9 E 20 26 11 14 - - 0.2
19/08:40am 18.6 16.7 14.1 75 2.7 E 17 26 9 14 - - 0.2
19/08:30am 18.0 16.3 14.6 80 2.1 E 17 20 9 11 - - 0.2
19/08:20am 17.6 15.4 14.5 82 1.9 E 19 22 10 12 - - 0.2
19/08:10am 17.3 15.1 14.5 83 1.7 E 19 22 10 12 - - 0.2
19/08:00am 17.0 15.2 14.5 85 1.5 E 17 22 9 12 - - 0.2
19/07:50am 16.8 15.1 14.6 87 1.3 E 17 24 9 13 - - 0.2
19/07:40am 16.6 14.8 14.5 87 1.3 E 17 20 9 11 - - 0.2
19/07:30am 16.3 14.9 14.4 88 1.1 E 15 19 8 10 - - 0.2
19/07:20am 15.9 14.8 14.3 90 1.0 E 13 19 7 10 - - 0.2
19/07:10am 15.5 14.0 14.2 92 0.8 E 15 19 8 10 - - 0.2
19/07:00am 15.3 14.1 14.0 92 0.8 E 13 19 7 10 - - 0.2
19/06:50am 15.1 13.1 13.8 92 0.8 E 17 20 9 11 - - 0.2
19/06:40am 14.8 13.5 13.8 94 0.6 E 13 17 7 9 - - 0.2
19/06:30am 14.6 12.9 13.7 94 0.5 E 15 17 8 9 - - 0.2
19/06:20am 14.5 13.1 13.5 94 0.6 E 13 17 7 9 - - 0.2
19/06:10am 14.5 13.1 13.5 94 0.6 E 13 15 7 8 - - 0.2
19/06:00am 14.5 12.8 13.5 94 0.6 E 15 19 8 10 - - 0.2
19/05:50am 14.6 13.2 13.5 93 0.6 E 13 17 7 9 - - 0.2
19/05:40am 14.5 13.5 13.5 94 0.6 E 11 15 6 8 - - 0.2
19/05:30am 14.4 13.7 13.3 93 0.6 ESE 9 15 5 8 - - 0.2
19/05:20am 14.3 13.6 13.2 93 0.6 E 9 11 5 6 - - 0.2
19/05:10am 14.3 13.3 13.3 94 0.6 E 11 15 6 8 - - 0.0
19/05:00am 14.4 13.8 13.4 94 0.6 E 9 15 5 8 - - 0.0
19/04:50am 14.4 13.4 13.3 93 0.6 E 11 15 6 8 - - 0.0
19/04:40am 14.4 13.4 13.4 94 0.6 E 11 15 6 8 - - 0.0
19/04:30am 14.4 13.4 13.4 94 0.6 E 11 17 6 9 - - 0.0
19/04:20am 14.3 13.3 13.3 94 0.6 E 11 13 6 7 - - 0.0
19/04:10am 14.1 13.7 13.1 94 0.6 ENE 7 11 4 6 - - 0.0
19/04:00am 14.2 13.5 13.1 93 0.6 E 9 11 5 6 - - 0.0
19/03:50am 14.2 13.5 13.1 93 0.6 E 9 11 5 6 - - 0.0
19/03:40am 14.3 13.2 13.1 92 0.7 E 11 17 6 9 - - 0.0
19/03:30am 14.4 12.9 13.2 92 0.7 E 13 17 7 9 - - 0.0
19/03:20am 14.3 12.5 13.2 93 0.6 E 15 17 8 9 - - 0.0
19/03:10am 14.2 13.1 13.0 92 0.7 ENE 11 15 6 8 - - 0.0
19/03:00am 14.4 13.2 12.9 91 0.9 E 11 15 6 8 - - 0.0
19/02:50am 14.4 13.2 12.8 90 0.9 E 11 15 6 8 - - 0.0
19/02:40am 14.4 12.5 12.9 91 0.9 ENE 15 19 8 10 - - 0.0
19/02:30am 14.3 12.8 13.1 92 0.7 E 13 17 7 9 - - 0.0
19/02:20am 14.3 13.2 13.2 93 0.6 E 11 13 6 7 - - 0.0
19/02:10am 14.4 12.6 13.2 92 0.7 E 15 17 8 9 - - 0.0
19/02:00am 14.6 12.3 13.1 91 0.9 E 17 22 9 12 - - 0.0
19/01:50am 14.5 12.7 13.3 92 0.7 E 15 17 8 9 - - 0.0
19/01:40am 14.5 12.2 13.1 91 0.8 E 17 19 9 10 - - 0.0
19/01:30am 14.6 12.4 13.2 91 0.8 E 17 20 9 11 - - 0.0
19/01:20am 14.7 12.1 13.3 91 0.8 E 19 20 10 11 - - 0.0
19/01:10am 14.8 12.3 13.4 91 0.8 E 19 22 10 12 - - 0.0
19/01:00am 14.7 12.6 13.5 92 0.7 E 17 22 9 12 - - 0.0
19/12:50am 14.7 13.0 13.5 92 0.7 E 15 20 8 11 - - 0.0
19/12:40am 14.8 12.3 13.5 92 0.8 E 19 24 10 13 - - 0.0
19/12:20am 14.7 13.3 13.4 92 0.8 E 13 17 7 9 - - 0.0
19/12:10am 14.7 13.3 13.4 92 0.8 E 13 17 7 9 - - 0.0
19/12:00am 14.7 13.3 13.4 92 0.8 E 13 17 7 9 - - 0.0
 
Date/Time
EST
Temp
°C
App
Temp
°C
Dew
Point
°C
Rel
Hum
%
Delta-T
°C
Wind Press
QNH
hPa
Press
MSL
hPa
Rain since
9am
mm
Dir  Spd
km/h
Gust
km/h
Spd
kts
Gust
kts
18/11:50pm 14.8 13.0 13.4 91 0.8 E 15 20 8 11 - - 0.0
18/11:40pm 14.8 12.3 13.5 92 0.8 E 19 22 10 12 - - 0.0
18/11:30pm 14.8 12.6 13.3 91 0.9 E 17 20 9 11 - - 0.0
18/11:20pm 14.8 12.6 13.4 91 0.8 E 17 20 9 11 - - 0.0
18/11:10pm 14.7 12.5 13.3 91 0.8 E 17 22 9 12 - - 0.0
18/11:00pm 14.8 12.6 13.2 90 0.9 E 17 22 9 12 - - 0.0
18/10:50pm 14.8 12.2 13.3 91 0.9 E 19 22 10 12 - - 0.0
18/10:40pm 14.8 13.0 13.2 90 0.9 E 15 20 8 11 - - 0.0
18/10:30pm 14.9 12.3 13.2 89 1.0 E 19 22 10 12 - - 0.0
18/10:20pm 14.9 12.3 13.2 89 1.0 E 19 22 10 12 - - 0.0
18/10:10pm 14.9 13.1 13.4 91 0.9 E 15 20 8 11 - - 0.0
18/10:00pm 14.9 12.7 13.2 89 1.0 E 17 19 9 10 - - 0.0
18/09:50pm 14.8 13.0 13.3 91 0.9 E 15 22 8 12 - - 0.0
18/09:40pm 14.9 13.1 13.4 91 0.9 E 15 20 8 11 - - 0.0
18/09:30pm 15.0 12.8 13.4 90 0.9 E 17 20 9 11 - - 0.0
18/09:20pm 15.1 12.6 13.5 90 0.9 E 19 22 10 12 - - 0.0
18/09:10pm 15.1 13.0 13.5 90 0.9 E 17 19 9 10 - - 0.0
18/09:00pm 15.2 13.5 13.6 90 0.9 E 15 22 8 12 - - 0.0
18/08:50pm 15.1 13.8 13.6 91 0.9 E 13 19 7 10 - - 0.0
18/08:40pm 15.1 13.7 13.5 90 0.9 E 13 20 7 11 - - 0.0
18/08:30pm 15.0 13.6 13.4 90 0.9 E 13 19 7 10 - - 0.0
18/08:20pm 15.1 13.7 13.5 90 0.9 E 13 17 7 9 - - 0.0
18/08:10pm 15.0 14.1 13.7 92 0.8 E 11 15 6 8 - - 0.0
18/08:00pm 15.1 14.2 13.7 91 0.8 E 11 17 6 9 - - 0.0
18/07:50pm 15.1 14.2 13.6 91 0.9 E 11 15 6 8 - - 0.0
18/07:40pm 15.2 13.8 13.5 89 1.0 E 13 17 7 9 - - 0.0
18/07:30pm 15.3 14.4 13.6 90 1.0 E 11 17 6 9 - - 0.0
18/07:20pm 15.4 14.8 13.5 88 1.1 E 9 13 5 7 - - 0.0
18/07:10pm 15.6 15.0 13.6 88 1.2 E 9 13 5 7 - - 0.0
18/07:00pm 15.8 15.5 13.4 86 1.4 E 7 11 4 6 - - 0.0
18/06:50pm 15.9 15.7 13.5 86 1.4 E 7 13 4 7 - - 0.0
18/06:40pm 16.1 16.0 13.2 83 1.7 E 6 9 3 5 - - 0.0
18/06:30pm 16.3 15.6 13.1 81 1.9 E 9 13 5 7 - - 0.0
18/06:20pm 16.6 15.1 13.0 79 2.1 E 13 15 7 8 - - 0.0
18/06:10pm 17.1 16.0 13.1 77 2.3 E 11 15 6 8 - - 0.0
18/06:00pm 17.7 15.8 12.9 73 2.8 E 15 19 8 10 - - 0.0
18/05:50pm 18.4 16.7 12.6 69 3.4 E 13 17 7 9 - - 0.0
18/05:40pm 18.7 17.0 12.5 67 3.6 ENE 13 19 7 10 - - 0.0
18/05:30pm 18.9 16.9 12.6 67 3.7 E 15 17 8 9 - - 0.0
18/05:20pm 19.5 17.4 12.5 64 4.1 E 15 20 8 11 - - 0.0
18/05:10pm 19.9 17.7 12.1 60 4.5 E 15 19 8 10 - - 0.0
18/05:00pm 20.1 17.7 11.3 57 5.1 E 15 17 8 9 - - 0.0
18/04:50pm 20.1 17.5 10.6 54 5.4 E 15 17 8 9 - - 0.0
18/04:40pm 20.8 18.2 10.6 52 5.8 ENE 15 22 8 12 - - 0.0
18/04:30pm 20.6 17.7 11.0 54 5.5 E 17 20 9 11 - - 0.0
18/04:20pm 20.2 17.0 11.2 56 5.2 ENE 19 20 10 11 - - 0.0
18/04:10pm 21.7 19.4 11.7 53 5.8 ENE 15 20 8 11 - - 0.0
18/04:00pm 20.9 18.2 10.2 50 6.1 ENE 15 22 8 12 - - 0.0
18/03:50pm 22.0 19.2 11.4 51 6.2 ENE 17 20 9 11 - - 0.0
18/03:40pm 21.8 19.0 10.1 47 6.6 E 15 17 8 9 - - 0.0
18/03:30pm 21.9 19.3 10.7 49 6.4 ENE 15 20 8 11 - - 0.0
18/03:20pm 21.8 18.8 10.7 49 6.4 ENE 17 20 9 11 - - 0.0
18/03:00pm 22.1 19.0 11.6 51 6.1 ENE 19 22 10 12 - - 0.0
18/02:50pm 22.8 19.6 11.3 48 6.7 E 19 24 10 13 - - 0.0
18/02:40pm 23.0 20.2 11.3 47 6.8 ENE 17 22 9 12 - - 0.0
18/02:30pm 22.6 18.9 10.1 45 7.1 E 20 22 11 12 - - 0.0
18/02:20pm 23.1 19.6 10.3 44 7.3 E 19 26 10 14 - - 0.0
18/02:10pm 23.3 20.0 11.0 46 7.1 E 19 26 10 14 - - 0.0
18/02:00pm 23.1 19.6 10.8 45 7.1 E 20 24 11 13 - - 0.0
18/01:50pm 23.0 19.0 10.3 44 7.3 E 22 26 12 14 - - 0.0
18/01:40pm 23.1 18.9 8.4 39 8.2 ENE 20 26 11 14 - - 0.0
18/01:30pm 23.6 20.3 9.5 40 8.0 E 17 22 9 12 - - 0.0
18/01:20pm 23.1 19.5 9.9 43 7.5 E 19 22 10 12 - - 0.0
18/01:10pm 23.1 20.0 11.5 48 6.8 ENE 19 22 10 12 - - 0.0
18/01:00pm 22.8 19.0 9.1 41 7.7 E 19 22 10 12 - - 0.0
18/12:50pm 22.2 19.3 12.4 53 5.8 ENE 19 24 10 13 - - 0.0
18/12:40pm 22.8 19.7 12.1 51 6.3 E 20 22 11 12 - - 0.0
18/12:30pm 22.9 20.0 12.3 51 6.3 E 19 26 10 14 - - 0.0
18/12:20pm 22.8 19.7 11.7 49 6.5 E 19 22 10 12 - - 0.0
18/12:10pm 23.1 19.6 10.2 44 7.4 ENE 19 24 10 13 - - 0.0
18/12:00pm 22.4 19.1 11.7 50 6.3 E 20 24 11 13 - - 0.0
18/11:50am 22.7 19.3 11.3 48 6.6 E 20 26 11 14 - - 0.0
18/11:40am 22.3 18.7 10.6 47 6.7 E 20 24 11 13 - - 0.0
18/11:30am 21.9 18.7 11.8 52 5.9 E 20 24 11 13 - - 0.0
18/11:20am 21.8 18.8 11.9 53 5.8 E 19 26 10 14 - - 0.0
18/11:10am 22.0 19.0 12.4 54 5.7 E 20 22 11 12 - - 0.0
18/11:00am 21.9 19.1 11.2 50 6.2 E 17 20 9 11 - - 0.0
18/10:50am 21.2 17.7 12.3 57 5.2 E 22 24 12 13 - - 0.0
18/10:40am 21.5 18.6 12.3 55 5.4 E 19 24 10 13 - - 0.0
18/10:30am 21.1 17.7 12.5 58 5.1 E 22 26 12 14 - - 0.0
18/10:20am 20.7 17.4 12.9 61 4.6 E 22 28 12 15 - - 0.0
18/10:10am 21.1 18.3 12.5 58 5.1 ENE 19 22 10 12 - - 0.0
18/10:00am 20.5 16.8 12.6 60 4.7 ENE 24 30 13 16 - - 0.0
18/09:50am 20.1 16.0 12.7 62 4.4 ENE 26 30 14 16 - - 0.0
18/09:40am 19.9 16.0 13.4 66 3.9 E 26 30 14 16 - - 0.0
18/09:30am 19.9 17.0 13.9 68 3.6 E 22 28 12 15 - - 0.0
18/09:20am 19.3 16.5 14.3 73 3.0 E 22 28 12 15 - - 0.0
18/09:10am 19.4 16.9 14.0 71 3.2 E 20 24 11 13 - - 0.0
18/09:00am 19.1 16.2 13.9 72 3.1 E 22 28 12 15 - - 0.2
18/08:50am 18.6 15.2 13.8 73 2.9 ENE 24 28 13 15 - - 0.2
18/08:40am 18.2 15.2 13.7 75 2.7 E 22 28 12 15 - - 0.2
18/08:30am 18.1 15.5 13.7 75 2.6 ENE 20 26 11 14 - - 0.2
18/08:20am 17.6 15.0 13.8 78 2.3 E 20 26 11 14 - - 0.2
18/08:10am 17.2 13.8 13.7 80 2.1 E 24 26 13 14 - - 0.2
18/08:00am 17.1 15.1 13.9 81 1.9 E 17 19 9 10 - - 0.2
18/07:50am 16.7 14.1 13.8 83 1.7 E 20 24 11 13 - - 0.2
18/07:40am 16.3 13.3 13.8 85 1.5 E 22 26 12 14 - - 0.2
18/07:30am 16.0 13.4 13.7 86 1.4 ENE 20 24 11 13 - - 0.2
18/07:20am 15.7 13.2 13.5 87 1.3 E 19 24 10 13 - - 0.2
18/07:10am 15.4 13.0 13.7 90 1.0 E 19 22 10 12 - - 0.2
18/07:00am 15.5 13.5 13.8 90 1.0 ENE 17 22 9 12 - - 0.2
18/06:50am 15.2 12.8 13.7 91 0.9 ENE 19 22 10 12 - - 0.2
18/06:40am 15.1 12.7 13.8 92 0.8 E 19 20 10 11 - - 0.0
18/06:30am 15.0 12.5 13.6 91 0.8 ENE 19 22 10 12 - - 0.0
18/06:20am 14.9 12.2 13.6 92 0.8 ENE 20 24 11 13 - - 0.0
18/06:10am 14.8 12.7 13.7 93 0.6 ENE 17 20 9 11 - - 0.0
18/06:00am 14.8 13.1 13.6 92 0.7 ENE 15 19 8 10 - - 0.0
18/05:50am 14.8 12.7 13.7 93 0.6 ENE 17 20 9 11 - - 0.0
18/05:40am 14.8 13.1 13.5 92 0.8 ENE 15 24 8 13 - - 0.0
18/05:30am 14.8 13.0 13.4 91 0.8 ENE 15 19 8 10 - - 0.0
18/05:20am 14.8 12.7 13.6 92 0.7 ENE 17 20 9 11 - - 0.0
18/05:10am 14.8 12.6 13.4 91 0.8 ENE 17 26 9 14 - - 0.0
18/05:00am 14.8 12.7 13.5 92 0.8 ENE 17 24 9 13 - - 0.0
18/04:50am 14.8 12.6 13.4 91 0.8 ENE 17 22 9 12 - - 0.0
18/04:40am 14.8 13.5 13.6 92 0.7 ENE 13 19 7 10 - - 0.0
18/04:30am 14.8 13.9 13.6 92 0.7 ENE 11 15 6 8 - - 0.0
18/04:20am 14.9 13.6 13.6 92 0.8 ENE 13 15 7 8 - - 0.0
18/04:10am 14.9 13.6 13.6 92 0.8 ENE 13 17 7 9 - - 0.0
18/04:00am 14.9 14.0 13.6 92 0.8 ENE 11 17 6 9 - - 0.0
18/03:50am 15.0 13.7 13.8 92 0.7 ENE 13 15 7 8 - - 0.0
18/03:40am 14.9 14.3 13.6 92 0.8 ENE 9 15 5 8 - - 0.0
18/03:30am 14.9 14.3 13.6 92 0.8 ENE 9 13 5 7 - - 0.0
18/03:20am 15.0 14.1 13.6 91 0.8 ENE 11 15 6 8 - - 0.0
18/03:10am 15.1 13.5 13.9 92 0.7 ENE 15 20 8 11 - - 0.0
18/03:00am 15.3 13.7 13.8 91 0.9 ENE 15 19 8 10 - - 0.0
18/02:50am 15.4 13.4 14.0 91 0.8 ENE 17 20 9 11 - - 0.0
18/02:40am 15.4 13.9 14.2 92 0.7 ENE 15 20 8 11 - - 0.0
18/02:30am 15.4 13.9 14.3 93 0.7 ENE 15 19 8 10 - - 0.0
18/02:20am 15.3 13.4 14.2 93 0.7 ENE 17 20 9 11 - - 0.0
18/02:10am 15.1 13.9 14.1 94 0.6 ENE 13 17 7 9 - - 0.0
18/02:00am 14.9 14.4 13.9 94 0.6 ENE 9 17 5 9 - - 0.0
18/01:50am 14.8 14.3 13.7 93 0.6 ENE 9 15 5 8 - - 0.0
18/01:40am 14.9 14.0 13.7 92 0.7 ENE 11 15 6 8 - - 0.0
18/01:30am 14.9 14.0 13.6 92 0.8 ENE 11 17 6 9 - - 0.0
18/01:20am 14.9 14.3 13.4 91 0.9 ENE 9 11 5 6 - - 0.0
18/01:10am 14.9 13.9 13.5 91 0.8 NE 11 13 6 7 - - 0.0
18/01:00am 14.9 14.3 13.6 92 0.8 NE 9 11 5 6 - - 0.0
18/12:50am 15.2 14.0 13.9 92 0.8 ENE 13 17 7 9 - - 0.0
18/12:40am 15.3 14.1 14.1 92 0.7 ENE 13 19 7 10 - - 0.0
18/12:30am 15.1 14.3 13.9 92 0.7 ENE 11 15 6 8 - - 0.0
18/12:20am 15.1 14.6 13.8 92 0.8 ENE 9 15 5 8 - - 0.0
18/12:10am 15.1 14.2 13.8 92 0.8 ENE 11 13 6 7 - - 0.0
18/12:00am 15.3 14.1 14.1 92 0.7 NE 13 17 7 9 - - 0.0
 
Date/Time
EST
Temp
°C
App
Temp
°C
Dew
Point
°C
Rel
Hum
%
Delta-T
°C
Wind Press
QNH
hPa
Press
MSL
hPa
Rain since
9am
mm
Dir  Spd
km/h
Gust
km/h
Spd
kts
Gust
kts
17/11:50pm 15.2 14.4 14.0 92 0.7 ENE 11 17 6 9 - - 0.0
17/11:40pm 15.2 14.4 13.9 92 0.8 ENE 11 13 6 7 - - 0.0
17/11:30pm 15.4 14.2 14.0 91 0.8 ENE 13 19 7 10 - - 0.0
17/11:20pm 15.3 14.5 14.1 92 0.7 ENE 11 15 6 8 - - 0.0
17/11:10pm 15.2 14.4 14.0 92 0.7 ENE 11 15 6 8 - - 0.0
17/11:00pm 15.1 14.7 14.0 93 0.6 ENE 9 11 5 6 - - 0.0
17/10:50pm 15.1 14.6 13.9 92 0.7 ENE 9 15 5 8 - - 0.0
17/10:40pm 15.2 14.7 13.8 91 0.8 ENE 9 13 5 7 - - 0.0
17/10:30pm 15.2 15.0 13.7 91 0.9 ENE 7 11 4 6 - - 0.0
17/10:20pm 15.4 14.6 13.9 91 0.9 ENE 11 13 6 7 - - 0.0
17/10:10pm 15.3 15.2 13.9 91 0.8 ENE 7 11 4 6 - - 0.0
17/10:00pm 15.5 14.7 14.0 91 0.9 ENE 11 15 6 8 - - 0.0
17/09:50pm 15.4 14.6 14.0 91 0.8 ENE 11 15 6 8 - - 0.0
17/09:40pm 15.4 15.0 14.0 91 0.8 ENE 9 13 5 7 - - 0.0
17/09:30pm 15.5 14.7 14.1 91 0.8 ENE 11 15 6 8 - - 0.0
17/09:20pm 15.5 15.1 14.0 91 0.9 ENE 9 15 5 8 - - 0.0
17/09:10pm 15.4 14.6 14.0 91 0.8 ENE 11 19 6 10 - - 0.0
17/09:00pm 15.4 14.5 13.8 90 0.9 ENE 11 15 6 8 - - 0.0
17/08:50pm 15.4 14.9 13.8 90 0.9 ENE 9 13 5 7 - - 0.0
17/08:40pm 15.4 14.9 13.9 91 0.9 ENE 9 13 5 7 - - 0.0
17/08:30pm 15.6 14.8 13.9 90 1.0 ENE 11 13 6 7 - - 0.0
17/08:20pm 15.7 14.9 14.0 90 1.0 ENE 11 15 6 8 - - 0.0
17/08:10pm 15.9 15.1 14.1 89 1.1 ENE 11 15 6 8 - - 0.0
17/08:00pm 15.9 15.0 13.6 86 1.4 ENE 11 13 6 7 - - 0.0
17/07:50pm 16.1 15.1 13.4 84 1.6 ENE 11 17 6 9 - - 0.0
17/07:40pm 16.1 14.4 13.7 86 1.4 NE 15 17 8 9 - - 0.0
17/07:30pm 16.2 15.3 13.8 86 1.4 NE 11 15 6 8 - - 0.0
17/07:20pm 16.5 15.2 13.8 84 1.6 NE 13 15 7 8 - - 0.0
17/07:10pm 16.6 15.8 14.1 85 1.5 ENE 11 13 6 7 - - 0.0
17/07:00pm 16.7 15.8 13.6 82 1.8 ENE 11 13 6 7 - - 0.0
17/06:50pm 16.9 15.7 11.7 71 3.0 NE 9 11 5 6 - - 0.0
17/06:40pm 17.2 16.3 12.5 74 2.7 ENE 9 15 5 8 - - 0.0
17/06:30pm 17.5 17.0 12.6 73 2.8 ENE 7 9 4 5 - - 0.0
17/06:20pm 18.0 17.2 12.8 71 3.0 ENE 9 13 5 7 - - 0.0
17/06:10pm 18.6 17.5 13.0 70 3.3 ENE 11 17 6 9 - - 0.0
17/06:00pm 19.2 18.1 13.1 68 3.6 ENE 11 17 6 9 - - 0.0
17/05:50pm 19.8 18.0 13.2 65 3.9 ENE 15 22 8 12 - - 0.0
17/05:40pm 20.4 18.2 13.4 64 4.2 ENE 17 20 9 11 - - 0.0
17/05:30pm 20.9 18.7 13.4 62 4.5 ENE 17 22 9 12 - - 0.0
17/05:20pm 21.5 19.3 13.2 59 5.0 E 17 22 9 12 - - 0.0
17/05:10pm 22.1 20.0 12.5 54 5.7 E 15 17 8 9 - - 0.0
17/05:00pm 22.2 19.2 12.0 52 6.0 E 19 24 10 13 - - 0.0
17/04:50pm 22.6 19.8 11.4 49 6.5 E 17 20 9 11 - - 0.0
17/04:40pm 22.8 19.6 11.4 48 6.6 E 19 20 10 11 - - 0.0
17/04:30pm 23.1 19.9 11.9 49 6.6 E 20 24 11 13 - - 0.0
17/04:20pm 23.5 20.3 11.2 46 7.2 E 19 22 10 12 - - 0.0
17/04:10pm 23.8 20.6 11.3 45 7.3 E 19 20 10 11 - - 0.0
17/04:00pm 24.0 20.8 11.3 45 7.4 ENE 19 22 10 12 - - 0.0
17/03:50pm 24.3 21.2 11.7 45 7.4 ENE 19 26 10 14 - - 0.0
17/03:40pm 24.6 21.3 11.0 42 7.9 ENE 19 24 10 13 - - 0.0
17/03:30pm 25.0 22.2 11.2 42 8.1 ENE 17 20 9 11 - - 0.0
17/03:20pm 25.0 22.0 12.0 44 7.7 E 19 22 10 12 - - 0.0
17/03:10pm 25.4 23.0 12.5 44 7.7 E 17 22 9 12 - - 0.0
17/03:00pm 25.8 23.6 13.2 45 7.7 E 17 20 9 11 - - 0.0
17/02:50pm 25.1 21.8 11.0 41 8.3 ENE 19 20 10 11 - - 0.0
17/02:40pm 25.4 22.0 10.4 39 8.7 E 19 24 10 13 - - 0.0
17/02:30pm 25.7 21.9 9.0 34 9.5 E 19 20 10 11 - - 0.0
17/02:20pm 25.4 21.5 9.3 36 9.2 E 20 24 11 13 - - 0.0
17/02:10pm 25.2 21.3 9.4 36 9.0 E 20 24 11 13 - - 0.0
17/02:00pm 25.7 22.5 10.1 37 9.0 E 17 22 9 12 - - 0.0
17/01:50pm 25.4 21.6 9.1 35 9.3 E 19 24 10 13 - - 0.0
17/01:40pm 25.5 21.7 9.0 35 9.4 ENE 19 20 10 11 - - 0.0
17/01:30pm 25.8 22.0 9.2 35 9.5 E 19 22 10 12 - - 0.0
17/01:20pm 26.1 22.7 9.1 34 9.7 E 17 20 9 11 - - 0.0
17/01:10pm 26.0 21.8 7.4 30 10.3 E 19 24 10 13 - - 0.0
17/01:00pm 26.0 22.1 6.9 29 10.5 ENE 17 22 9 12 - - 0.0
17/12:50pm 26.1 22.1 6.7 29 10.6 E 17 22 9 12 - - 0.0
17/12:40pm 25.9 22.3 8.5 33 9.8 ENE 17 20 9 11 - - 0.0
17/12:30pm 26.3 22.2 6.4 28 10.8 E 17 20 9 11 - - 0.0
17/12:20pm 25.7 21.9 7.5 31 10.1 E 17 19 9 10 - - 0.0
17/12:10pm 25.5 21.1 6.4 29 10.4 E 19 26 10 14 - - 0.0
17/12:00pm 25.0 20.5 6.8 31 9.9 E 20 22 11 12 - - 0.0
17/11:50am 25.3 21.0 6.8 30 10.1 ENE 19 20 10 11 - - 0.0
17/11:40am 25.2 21.2 6.7 30 10.1 E 17 20 9 11 - - 0.0
17/11:30am 24.9 20.5 6.7 31 9.9 E 19 26 10 14 - - 0.0
17/11:20am 24.8 20.8 6.5 31 9.9 E 17 20 9 11 - - 0.0
17/11:10am 24.9 21.0 7.0 31 9.8 E 17 20 9 11 - - 0.0
17/11:00am 24.6 20.4 5.8 29 10.0 E 17 20 9 11 - - 0.0
17/10:50am 24.6 20.5 6.2 30 9.9 E 17 24 9 13 - - 0.0
17/10:40am 24.5 20.4 6.0 30 9.9 E 17 20 9 11 - - 0.0
17/10:30am 24.9 22.0 6.7 31 9.9 E 11 15 6 8 - - 0.0
17/10:20am 24.2 20.4 5.8 30 9.8 E 15 19 8 10 - - 0.0
17/10:10am 23.9 20.3 5.2 30 9.8 E 13 17 7 9 - - 0.0
17/10:00am 23.9 19.6 5.3 30 9.8 E 17 19 9 10 - - 0.0
17/09:50am 24.0 20.9 5.4 30 9.8 ENE 11 15 6 8 - - 0.0
17/09:40am 23.5 20.0 5.6 31 9.5 E 13 17 7 9 - - 0.0
17/09:30am 23.1 19.7 5.8 32 9.2 E 13 17 7 9 - - 0.0
17/09:20am 22.8 18.9 5.3 32 9.2 ENE 15 19 8 10 - - 0.0
17/09:10am 22.7 19.2 5.3 32 9.1 E 13 17 7 9 - - 0.0
17/09:00am 22.9 20.1 5.2 31 9.3 E 9 11 5 6 - - 0.0
17/08:50am 22.5 19.6 4.6 31 9.2 E 9 13 5 7 - - 0.0
17/08:40am 21.9 19.0 4.5 32 8.9 ENE 9 13 5 7 - - 0.0
17/08:30am 21.0 17.6 4.0 32 8.6 ENE 11 13 6 7 - - 0.0
17/08:20am 19.0 17.3 3.9 36 7.5 WNW 2 11 1 6 - - 0.0
17/08:10am 17.3 15.9 5.4 45 6.0 WNW 2 4 1 2 - - 0.0
17/08:00am 15.7 14.1 6.4 54 4.8 NW 4 6 2 3 - - 0.0
17/07:50am 14.1 13.1 7.3 63 3.5 WNW 2 4 1 2 - - 0.0
17/07:40am 12.4 11.3 7.1 70 2.7 NW 2 4 1 2 - - 0.0
17/07:30am 10.7 10.0 6.9 77 1.9 CALM 0 4 0 2 - - 0.0
17/07:20am 9.2 8.3 7.6 90 0.8 ENE 2 2 1 1 - - 0.0
17/07:10am 8.2 7.5 6.9 91 0.6 CALM 0 2 0 1 - - 0.0
17/07:00am 7.6 6.8 6.3 91 0.6 CALM 0 4 0 2 - - 0.0
17/06:50am 7.0 6.0 5.6 91 0.7 CALM 0 0 0 0 - - 0.0
17/06:40am 6.8 5.8 5.4 91 0.7 CALM 0 2 0 1 - - 0.0
17/06:30am 6.6 5.2 5.4 92 0.6 NNE 2 2 1 1 - - 0.0
17/06:20am 6.7 5.3 5.3 91 0.7 NNW 2 4 1 2 - - 0.0
17/06:10am 6.8 5.8 5.5 91 0.6 CALM 0 0 0 0 - - 0.0
17/06:00am 6.8 5.8 5.4 91 0.7 CALM 0 2 0 1 - - 0.0
17/05:50am 7.1 5.7 5.7 91 0.7 NNE 2 4 1 2 - - 0.0
17/05:40am 7.3 6.3 5.7 89 0.8 CALM 0 2 0 1 - - 0.0
17/05:30am 7.4 6.0 5.6 88 0.9 NNW 2 2 1 1 - - 0.0
17/05:20am 7.4 5.7 5.7 89 0.8 NNE 4 6 2 3 - - 0.0
17/05:10am 7.2 5.1 5.7 90 0.7 NNE 6 7 3 4 - - 0.0
17/05:00am 7.3 5.6 5.7 89 0.8 NNE 4 7 2 4 - - 0.0
17/04:50am 7.4 5.7 5.8 90 0.8 NNE 4 7 2 4 - - 0.0

Other Formats:

Comma delimited format used in spreadsheet applications
http://www.bom.gov.au/fwo/IDQ60801/IDQ60801.99124.axf

JavaScript Object Notation format (JSON) in row-major order
http://www.bom.gov.au/fwo/IDQ60801/IDQ60801.99124.json